sensor_id;sensor_type;location;lat;lon;timestamp;pressure;altitude;pressure_sealevel;temperature;humidity
38466;BME280;24244;51.950;5.902;2023-04-30T00:02:11;102264.50;;;10.24;69.92
38466;BME280;24244;51.950;5.902;2023-04-30T00:04:38;102265.50;;;10.23;70.23
38466;BME280;24244;51.950;5.902;2023-04-30T00:07:04;102267.47;;;10.20;69.96
38466;BME280;24244;51.950;5.902;2023-04-30T00:09:33;102264.94;;;10.19;69.75
38466;BME280;24244;51.950;5.902;2023-04-30T00:11:59;102268.03;;;10.14;69.99
38466;BME280;24244;51.950;5.902;2023-04-30T00:14:26;102275.59;;;10.09;70.05
38466;BME280;24244;51.950;5.902;2023-04-30T00:16:53;102284.00;;;10.05;70.06
38466;BME280;24244;51.950;5.902;2023-04-30T00:19:19;102279.97;;;10.01;70.05
38466;BME280;24244;51.950;5.902;2023-04-30T00:21:46;102280.25;;;9.98;70.50
38466;BME280;24244;51.950;5.902;2023-04-30T00:24:13;102275.38;;;9.93;70.36
38466;BME280;24244;51.950;5.902;2023-04-30T00:26:41;102275.66;;;9.90;70.55
38466;BME280;24244;51.950;5.902;2023-04-30T00:29:09;102279.28;;;9.89;70.59
38466;BME280;24244;51.950;5.902;2023-04-30T00:31:36;102278.44;;;9.89;70.51
38466;BME280;24244;51.950;5.902;2023-04-30T00:34:03;102277.63;;;9.88;70.54
38466;BME280;24244;51.950;5.902;2023-04-30T00:36:29;102281.41;;;9.86;70.31
38466;BME280;24244;51.950;5.902;2023-04-30T00:38:57;102279.34;;;9.79;70.80
38466;BME280;24244;51.950;5.902;2023-04-30T00:41:24;102280.59;;;9.75;70.62
38466;BME280;24244;51.950;5.902;2023-04-30T00:43:52;102285.19;;;9.73;70.79
38466;BME280;24244;51.950;5.902;2023-04-30T00:46:19;102281.03;;;9.71;70.89
38466;BME280;24244;51.950;5.902;2023-04-30T00:48:46;102279.50;;;9.68;70.93
38466;BME280;24244;51.950;5.902;2023-04-30T00:51:14;102282.16;;;9.68;70.93
38466;BME280;24244;51.950;5.902;2023-04-30T00:53:42;102283.28;;;9.66;71.20
38466;BME280;24244;51.950;5.902;2023-04-30T00:56:09;102279.94;;;9.64;71.32
38466;BME280;24244;51.950;5.902;2023-04-30T00:58:36;102287.06;;;9.63;71.11
38466;BME280;24244;51.950;5.902;2023-04-30T01:01:05;102290.69;;;9.62;70.95
38466;BME280;24244;51.950;5.902;2023-04-30T01:03:32;102300.59;;;9.60;70.78
38466;BME280;24244;51.950;5.902;2023-04-30T01:06:01;102297.28;;;9.58;71.21
38466;BME280;24244;51.950;5.902;2023-04-30T01:08:32;102295.59;;;9.57;71.09
38466;BME280;24244;51.950;5.902;2023-04-30T01:11:07;102297.53;;;9.55;71.25
38466;BME280;24244;51.950;5.902;2023-04-30T01:13:41;102296.84;;;9.53;71.25
38466;BME280;24244;51.950;5.902;2023-04-30T01:16:14;102292.81;;;9.49;71.24
38466;BME280;24244;51.950;5.902;2023-04-30T01:18:49;102297.41;;;9.47;71.27
38466;BME280;24244;51.950;5.902;2023-04-30T01:21:18;102294.88;;;9.46;71.57
38466;BME280;24244;51.950;5.902;2023-04-30T01:23:57;102293.38;;;9.43;71.67
38466;BME280;24244;51.950;5.902;2023-04-30T01:26:34;102290.97;;;9.40;71.52
38466;BME280;24244;51.950;5.902;2023-04-30T01:29:13;102292.25;;;9.36;71.40
38466;BME280;24244;51.950;5.902;2023-04-30T01:31:43;102293.50;;;9.32;71.34
38466;BME280;24244;51.950;5.902;2023-04-30T01:34:10;102294.63;;;9.29;71.56
38466;BME280;24244;51.950;5.902;2023-04-30T01:36:44;102286.94;;;9.26;71.68
38466;BME280;24244;51.950;5.902;2023-04-30T01:39:30;102285.41;;;9.24;71.75
38466;BME280;24244;51.950;5.902;2023-04-30T01:42:06;102280.09;;;9.24;71.79
38466;BME280;24244;51.950;5.902;2023-04-30T01:44:56;102285.69;;;9.21;71.97
38466;BME280;24244;51.950;5.902;2023-04-30T01:47:32;102288.34;;;9.21;71.73
38466;BME280;24244;51.950;5.902;2023-04-30T01:50:07;102286.13;;;9.16;71.77
38466;BME280;24244;51.950;5.902;2023-04-30T01:52:39;102288.22;;;9.13;71.84
38466;BME280;24244;51.950;5.902;2023-04-30T01:55:09;102286.13;;;9.07;72.07
38466;BME280;24244;51.950;5.902;2023-04-30T01:57:39;102292.38;;;9.06;72.08
38466;BME280;24244;51.950;5.902;2023-04-30T02:00:10;102294.19;;;9.05;72.32
38466;BME280;24244;51.950;5.902;2023-04-30T02:02:37;102296.00;;;9.04;72.26
38466;BME280;24244;51.950;5.902;2023-04-30T02:05:05;102294.50;;;9.02;72.36
38466;BME280;24244;51.950;5.902;2023-04-30T02:07:39;102295.88;;;8.96;72.42
38466;BME280;24244;51.950;5.902;2023-04-30T02:10:08;102306.06;;;8.91;72.33
38466;BME280;24244;51.950;5.902;2023-04-30T02:12:35;102306.31;;;8.88;72.86
38466;BME280;24244;51.950;5.902;2023-04-30T02:15:02;102306.47;;;8.87;72.68
38466;BME280;24244;51.950;5.902;2023-04-30T02:17:30;102304.78;;;8.86;72.63
38466;BME280;24244;51.950;5.902;2023-04-30T02:19:57;102308.28;;;8.86;72.67
38466;BME280;24244;51.950;5.902;2023-04-30T02:22:24;102311.91;;;8.85;72.81
38466;BME280;24244;51.950;5.902;2023-04-30T02:24:51;102321.53;;;8.86;72.82
38466;BME280;24244;51.950;5.902;2023-04-30T02:27:22;102309.97;;;8.87;72.79
38466;BME280;24244;51.950;5.902;2023-04-30T02:29:50;102310.81;;;8.88;72.96
38466;BME280;24244;51.950;5.902;2023-04-30T02:32:17;102306.31;;;8.88;72.83
38466;BME280;24244;51.950;5.902;2023-04-30T02:34:45;102315.94;;;8.89;72.98
38466;BME280;24244;51.950;5.902;2023-04-30T02:37:11;102309.81;;;8.89;72.81
38466;BME280;24244;51.950;5.902;2023-04-30T02:39:38;102315.94;;;8.89;72.90
38466;BME280;24244;51.950;5.902;2023-04-30T02:42:05;102315.94;;;8.89;72.88
38466;BME280;24244;51.950;5.902;2023-04-30T02:44:34;102317.09;;;8.87;72.81
38466;BME280;24244;51.950;5.902;2023-04-30T02:47:01;102318.75;;;8.88;72.80
38466;BME280;24244;51.950;5.902;2023-04-30T02:49:28;102307.31;;;8.87;72.71
38466;BME280;24244;51.950;5.902;2023-04-30T02:51:56;102309.97;;;8.87;72.67
38466;BME280;24244;51.950;5.902;2023-04-30T02:54:23;102301.44;;;8.84;72.88
38466;BME280;24244;51.950;5.902;2023-04-30T02:56:49;102301.84;;;8.79;72.78
38466;BME280;24244;51.950;5.902;2023-04-30T02:59:16;102302.97;;;8.77;73.13
38466;BME280;24244;51.950;5.902;2023-04-30T03:01:43;102301.16;;;8.77;72.91
38466;BME280;24244;51.950;5.902;2023-04-30T03:04:10;102306.56;;;8.76;72.92
38466;BME280;24244;51.950;5.902;2023-04-30T03:06:37;102301.41;;;8.74;73.07
38466;BME280;24244;51.950;5.902;2023-04-30T03:09:05;102303.94;;;8.76;72.99
38466;BME280;24244;51.950;5.902;2023-04-30T03:11:32;102290.81;;;8.74;72.78
38466;BME280;24244;51.950;5.902;2023-04-30T03:14:02;102296.25;;;8.73;73.24
38466;BME280;24244;51.950;5.902;2023-04-30T03:16:30;102290.13;;;8.72;73.21
38466;BME280;24244;51.950;5.902;2023-04-30T03:18:57;102287.47;;;8.72;73.06
38466;BME280;24244;51.950;5.902;2023-04-30T03:21:25;102297.25;;;8.72;73.47
38466;BME280;24244;51.950;5.902;2023-04-30T03:23:52;102296.41;;;8.71;73.20
38466;BME280;24244;51.950;5.902;2023-04-30T03:26:20;102293.88;;;8.70;73.12
38466;BME280;24244;51.950;5.902;2023-04-30T03:28:47;102289.41;;;8.70;73.13
38466;BME280;24244;51.950;5.902;2023-04-30T03:31:14;102290.25;;;8.71;72.96
38466;BME280;24244;51.950;5.902;2023-04-30T03:33:41;102295.56;;;8.71;73.15
38466;BME280;24244;51.950;5.902;2023-04-30T03:36:08;102296.53;;;8.70;73.13
38466;BME280;24244;51.950;5.902;2023-04-30T03:38:35;102289.53;;;8.69;73.17
38466;BME280;24244;51.950;5.902;2023-04-30T03:41:01;102294.16;;;8.67;73.21
38466;BME280;24244;51.950;5.902;2023-04-30T03:43:30;102289.97;;;8.64;73.47
38466;BME280;24244;51.950;5.902;2023-04-30T03:45:57;102293.59;;;8.63;73.16
38466;BME280;24244;51.950;5.902;2023-04-30T03:48:24;102292.75;;;8.62;73.55
38466;BME280;24244;51.950;5.902;2023-04-30T03:50:51;102286.59;;;8.62;73.48
38466;BME280;24244;51.950;5.902;2023-04-30T03:53:18;102292.88;;;8.61;73.34
38466;BME280;24244;51.950;5.902;2023-04-30T03:55:44;102282.28;;;8.61;73.51
38466;BME280;24244;51.950;5.902;2023-04-30T03:58:11;102291.19;;;8.60;73.52
38466;BME280;24244;51.950;5.902;2023-04-30T04:00:40;102287.03;;;8.57;73.70
38466;BME280;24244;51.950;5.902;2023-04-30T04:03:07;102283.53;;;8.57;73.60
38466;BME280;24244;51.950;5.902;2023-04-30T04:05:34;102285.34;;;8.56;73.58
38466;BME280;24244;51.950;5.902;2023-04-30T04:08:00;102287.16;;;8.56;73.73
38466;BME280;24244;51.950;5.902;2023-04-30T04:10:27;102286.44;;;8.54;73.54
38466;BME280;24244;51.950;5.902;2023-04-30T04:12:54;102282.94;;;8.53;73.64
38466;BME280;24244;51.950;5.902;2023-04-30T04:15:21;102284.75;;;8.53;73.86
38466;BME280;24244;51.950;5.902;2023-04-30T04:17:49;102292.88;;;8.51;73.91
38466;BME280;24244;51.950;5.902;2023-04-30T04:20:16;102291.06;;;8.52;73.76
38466;BME280;24244;51.950;5.902;2023-04-30T04:22:43;102294.53;;;8.52;74.06
38466;BME280;24244;51.950;5.902;2023-04-30T04:25:10;102290.06;;;8.53;74.04
38466;BME280;24244;51.950;5.902;2023-04-30T04:27:37;102295.34;;;8.53;73.97
38466;BME280;24244;51.950;5.902;2023-04-30T04:30:05;102294.53;;;8.52;73.75
38466;BME280;24244;51.950;5.902;2023-04-30T04:32:32;102298.16;;;8.51;73.83
38466;BME280;24244;51.950;5.902;2023-04-30T04:35:09;102301.91;;;8.49;74.10
38466;BME280;24244;51.950;5.902;2023-04-30T04:37:35;102300.22;;;8.48;74.05
38466;BME280;24244;51.950;5.902;2023-04-30T04:40:03;102302.03;;;8.47;74.19
38466;BME280;24244;51.950;5.902;2023-04-30T04:42:30;102296.75;;;8.47;74.11
38466;BME280;24244;51.950;5.902;2023-04-30T04:44:57;102306.66;;;8.45;74.03
38466;BME280;24244;51.950;5.902;2023-04-30T04:47:24;102297.03;;;8.44;74.11
38466;BME280;24244;51.950;5.902;2023-04-30T04:49:51;102299.69;;;8.44;74.05
38466;BME280;24244;51.950;5.902;2023-04-30T04:52:19;102299.69;;;8.44;74.23
38466;BME280;24244;51.950;5.902;2023-04-30T04:54:46;102307.63;;;8.44;74.12
38466;BME280;24244;51.950;5.902;2023-04-30T04:57:13;102297.16;;;8.43;74.12
38466;BME280;24244;51.950;5.902;2023-04-30T04:59:40;102305.81;;;8.45;74.36
38466;BME280;24244;51.950;5.902;2023-04-30T05:02:06;102306.66;;;8.45;74.29
38466;BME280;24244;51.950;5.902;2023-04-30T05:04:33;102304.13;;;8.44;74.24
38466;BME280;24244;51.950;5.902;2023-04-30T05:07:00;102305.09;;;8.43;74.23
38466;BME280;24244;51.950;5.902;2023-04-30T05:09:28;102309.56;;;8.42;74.24
38466;BME280;24244;51.950;5.902;2023-04-30T05:11:57;102311.38;;;8.42;74.36
38466;BME280;24244;51.950;5.902;2023-04-30T05:14:24;102306.06;;;8.42;74.54
38466;BME280;24244;51.950;5.902;2023-04-30T05:16:51;102305.22;;;8.41;74.52
38466;BME280;24244;51.950;5.902;2023-04-30T05:19:17;102301.75;;;8.41;74.41
38466;BME280;24244;51.950;5.902;2023-04-30T05:21:44;102301.63;;;8.42;74.50
38466;BME280;24244;51.950;5.902;2023-04-30T05:24:12;102308.59;;;8.43;74.76
38466;BME280;24244;51.950;5.902;2023-04-30T05:26:40;102302.44;;;8.43;74.41
38466;BME280;24244;51.950;5.902;2023-04-30T05:29:07;102304.13;;;8.44;74.82
38466;BME280;24244;51.950;5.902;2023-04-30T05:31:33;102305.81;;;8.45;74.58
38466;BME280;24244;51.950;5.902;2023-04-30T05:34:00;102312.50;;;8.49;74.66
38466;BME280;24244;51.950;5.902;2023-04-30T05:36:27;102321.19;;;8.51;74.57
38466;BME280;24244;51.950;5.902;2023-04-30T05:38:54;102314.75;;;8.53;74.66
38466;BME280;24244;51.950;5.902;2023-04-30T05:41:21;102312.81;;;8.55;74.70
38466;BME280;24244;51.950;5.902;2023-04-30T05:43:49;102311.72;;;8.58;74.51
38466;BME280;24244;51.950;5.902;2023-04-30T05:46:16;102312.25;;;8.61;74.67
38466;BME280;24244;51.950;5.902;2023-04-30T05:48:42;102312.84;;;8.65;74.63
38466;BME280;24244;51.950;5.902;2023-04-30T05:51:09;102309.91;;;8.68;74.69
38466;BME280;24244;51.950;5.902;2023-04-30T05:53:36;102311.47;;;8.71;74.79
38466;BME280;24244;51.950;5.902;2023-04-30T05:56:03;102310.19;;;8.75;74.62
38466;BME280;24244;51.950;5.902;2023-04-30T05:58:32;102309.81;;;8.79;74.77
38466;BME280;24244;51.950;5.902;2023-04-30T06:01:02;102314.56;;;8.85;74.45
38466;BME280;24244;51.950;5.902;2023-04-30T06:03:28;102312.19;;;8.92;74.48
38466;BME280;24244;51.950;5.902;2023-04-30T06:05:55;102308.16;;;8.97;74.55
38466;BME280;24244;51.950;5.902;2023-04-30T06:08:23;102312.63;;;9.07;74.31
38466;BME280;24244;51.950;5.902;2023-04-30T06:10:50;102316.28;;;9.15;74.49
38466;BME280;24244;51.950;5.902;2023-04-30T06:13:17;102318.66;;;9.28;74.46
38466;BME280;24244;51.950;5.902;2023-04-30T06:15:44;102319.06;;;9.42;74.47
38466;BME280;24244;51.950;5.902;2023-04-30T06:18:12;102322.97;;;9.58;73.96
38466;BME280;24244;51.950;5.902;2023-04-30T06:20:40;102319.72;;;9.73;73.55
38466;BME280;24244;51.950;5.902;2023-04-30T06:23:08;102318.72;;;9.94;73.52
38466;BME280;24244;51.950;5.902;2023-04-30T06:25:34;102328.03;;;10.17;73.25
38466;BME280;24244;51.950;5.902;2023-04-30T06:28:01;102322.50;;;10.38;72.83
38466;BME280;24244;51.950;5.902;2023-04-30T06:30:30;102315.81;;;10.61;72.31
38466;BME280;24244;51.950;5.902;2023-04-30T06:32:57;102325.53;;;10.80;71.87
38466;BME280;24244;51.950;5.902;2023-04-30T06:35:25;102319.69;;;10.94;71.43
38466;BME280;24244;51.950;5.902;2023-04-30T06:37:52;102320.28;;;11.06;71.31
38466;BME280;24244;51.950;5.902;2023-04-30T06:40:19;102319.22;;;11.16;71.06
38466;BME280;24244;51.950;5.902;2023-04-30T06:42:46;102309.50;;;11.25;71.23
38466;BME280;24244;51.950;5.902;2023-04-30T06:45:13;102321.19;;;11.32;71.26
38466;BME280;24244;51.950;5.902;2023-04-30T06:47:40;102316.25;;;11.37;71.33
38466;BME280;24244;51.950;5.902;2023-04-30T06:50:08;102312.44;;;11.39;71.03
38466;BME280;24244;51.950;5.902;2023-04-30T06:52:37;102313.44;;;11.38;71.19
38466;BME280;24244;51.950;5.902;2023-04-30T06:55:04;102316.09;;;11.38;71.10
38466;BME280;24244;51.950;5.902;2023-04-30T06:57:32;102318.75;;;11.38;71.62
38466;BME280;24244;51.950;5.902;2023-04-30T06:59:59;102318.75;;;11.38;71.74
38466;BME280;24244;51.950;5.902;2023-04-30T07:02:26;102318.91;;;11.37;71.67
38466;BME280;24244;51.950;5.902;2023-04-30T07:04:53;102321.56;;;11.37;71.89
38466;BME280;24244;51.950;5.902;2023-04-30T07:07:20;102321.06;;;11.33;71.68
38466;BME280;24244;51.950;5.902;2023-04-30T07:09:48;102326.53;;;11.32;71.94
38466;BME280;24244;51.950;5.902;2023-04-30T07:12:17;102322.38;;;11.29;71.73
38466;BME280;24244;51.950;5.902;2023-04-30T07:14:45;102325.16;;;11.28;71.84
38466;BME280;24244;51.950;5.902;2023-04-30T07:17:12;102319.16;;;11.26;72.33
38466;BME280;24244;51.950;5.902;2023-04-30T07:19:39;102319.31;;;11.24;72.23
38466;BME280;24244;51.950;5.902;2023-04-30T07:22:08;102322.94;;;11.23;72.44
38466;BME280;24244;51.950;5.902;2023-04-30T07:24:34;102326.78;;;11.21;72.55
38466;BME280;24244;51.950;5.902;2023-04-30T07:27:02;102335.75;;;11.20;72.32
38466;BME280;24244;51.950;5.902;2023-04-30T07:29:29;102329.56;;;11.19;72.52
38466;BME280;24244;51.950;5.902;2023-04-30T07:31:57;102332.94;;;11.21;72.61
38466;BME280;24244;51.950;5.902;2023-04-30T07:34:24;102331.09;;;11.22;72.65
38466;BME280;24244;51.950;5.902;2023-04-30T07:36:50;102337.94;;;11.24;72.61
38466;BME280;24244;51.950;5.902;2023-04-30T07:39:17;102328.28;;;11.23;72.44
38466;BME280;24244;51.950;5.902;2023-04-30T07:41:44;102336.81;;;11.27;72.29
38466;BME280;24244;51.950;5.902;2023-04-30T07:44:12;102333.16;;;11.28;72.23
38466;BME280;24244;51.950;5.902;2023-04-30T07:46:39;102333.00;;;11.29;72.08
38466;BME280;24244;51.950;5.902;2023-04-30T07:49:06;102335.50;;;11.31;72.50
38466;BME280;24244;51.950;5.902;2023-04-30T07:51:33;102330.72;;;11.34;72.13
38466;BME280;24244;51.950;5.902;2023-04-30T07:54:03;102331.41;;;11.36;72.01
38466;BME280;24244;51.950;5.902;2023-04-30T07:56:30;102332.91;;;11.39;72.21
38466;BME280;24244;51.950;5.902;2023-04-30T07:58:57;102333.47;;;11.43;72.37
38466;BME280;24244;51.950;5.902;2023-04-30T08:01:25;102332.28;;;11.45;72.09
38466;BME280;24244;51.950;5.902;2023-04-30T08:03:52;102338.03;;;11.50;71.89
38466;BME280;24244;51.950;5.902;2023-04-30T08:06:19;102345.69;;;11.53;71.91
38466;BME280;24244;51.950;5.902;2023-04-30T08:08:45;102345.53;;;11.55;72.11
38466;BME280;24244;51.950;5.902;2023-04-30T08:11:14;102346.22;;;11.57;72.06
38466;BME280;24244;51.950;5.902;2023-04-30T08:13:41;102343.25;;;11.60;72.23
38466;BME280;24244;51.950;5.902;2023-04-30T08:16:08;102345.59;;;11.63;71.89
38466;BME280;24244;51.950;5.902;2023-04-30T08:18:36;102336.44;;;11.65;72.09
38466;BME280;24244;51.950;5.902;2023-04-30T08:21:04;102336.16;;;11.68;71.66
38466;BME280;24244;51.950;5.902;2023-04-30T08:23:31;102336.69;;;11.72;71.86
38466;BME280;24244;51.950;5.902;2023-04-30T08:25:59;102340.75;;;11.76;71.73
38466;BME280;24244;51.950;5.902;2023-04-30T08:28:25;102332.28;;;11.81;71.83
38466;BME280;24244;51.950;5.902;2023-04-30T08:30:52;102332.66;;;11.86;71.80
38466;BME280;24244;51.950;5.902;2023-04-30T08:33:19;102334.69;;;11.92;71.95
38466;BME280;24244;51.950;5.902;2023-04-30T08:35:48;102334.75;;;12.00;71.64
38466;BME280;24244;51.950;5.902;2023-04-30T08:38:16;102341.97;;;12.07;71.70
38466;BME280;24244;51.950;5.902;2023-04-30T08:40:48;102342.69;;;12.18;71.19
38466;BME280;24244;51.950;5.902;2023-04-30T08:43:19;102334.72;;;12.26;71.33
38466;BME280;24244;51.950;5.902;2023-04-30T08:45:46;102331.28;;;12.33;71.15
38466;BME280;24244;51.950;5.902;2023-04-30T08:48:14;102338.47;;;12.41;70.75
38466;BME280;24244;51.950;5.902;2023-04-30T08:50:42;102331.34;;;12.49;70.90
38466;BME280;24244;51.950;5.902;2023-04-30T08:53:14;102333.22;;;12.57;70.75
38466;BME280;24244;51.950;5.902;2023-04-30T08:55:42;102329.06;;;12.63;71.00
38466;BME280;24244;51.950;5.902;2023-04-30T08:58:10;102331.25;;;12.67;70.76
38466;BME280;24244;51.950;5.902;2023-04-30T09:00:37;102331.28;;;12.75;70.77
38466;BME280;24244;51.950;5.902;2023-04-30T09:03:07;102336.81;;;12.82;70.65
38466;BME280;24244;51.950;5.902;2023-04-30T09:05:35;102335.31;;;12.87;70.86
38466;BME280;24244;51.950;5.902;2023-04-30T09:08:04;102327.66;;;12.92;70.44
38466;BME280;24244;51.950;5.902;2023-04-30T09:10:34;102325.50;;;12.96;70.78
38466;BME280;24244;51.950;5.902;2023-04-30T09:13:02;102324.84;;;13.02;70.57
38466;BME280;24244;51.950;5.902;2023-04-30T09:15:31;102328.88;;;13.06;70.82
38466;BME280;24244;51.950;5.902;2023-04-30T09:18:05;102322.19;;;13.10;70.49
38466;BME280;24244;51.950;5.902;2023-04-30T09:20:32;102324.38;;;13.15;70.49
38466;BME280;24244;51.950;5.902;2023-04-30T09:23:05;102314.06;;;13.20;70.31
38466;BME280;24244;51.950;5.902;2023-04-30T09:25:41;102317.75;;;13.27;70.22
38466;BME280;24244;51.950;5.902;2023-04-30T09:28:10;102314.56;;;13.31;69.83
38466;BME280;24244;51.950;5.902;2023-04-30T09:30:38;102321.75;;;13.39;70.01
38466;BME280;24244;51.950;5.902;2023-04-30T09:33:05;102318.41;;;13.45;69.75
38466;BME280;24244;51.950;5.902;2023-04-30T09:35:36;102316.72;;;13.52;69.76
38466;BME280;24244;51.950;5.902;2023-04-30T09:38:25;102319.56;;;13.59;69.64
38466;BME280;24244;51.950;5.902;2023-04-30T09:40:56;102311.72;;;13.65;69.49
38466;BME280;24244;51.950;5.902;2023-04-30T09:43:23;102321.91;;;13.70;69.30
38466;BME280;24244;51.950;5.902;2023-04-30T09:45:50;102315.91;;;13.76;69.43
38466;BME280;24244;51.950;5.902;2023-04-30T09:48:20;102302.00;;;13.81;69.06
38466;BME280;24244;51.950;5.902;2023-04-30T09:50:48;102312.03;;;13.87;68.88
38466;BME280;24244;51.950;5.902;2023-04-30T09:53:16;102302.50;;;13.92;68.75
38466;BME280;24244;51.950;5.902;2023-04-30T09:55:46;102305.34;;;13.99;68.89
38466;BME280;24244;51.950;5.902;2023-04-30T09:58:16;102300.78;;;14.07;68.54
38466;BME280;24244;51.950;5.902;2023-04-30T10:00:45;102294.94;;;14.12;68.53
38466;BME280;24244;51.950;5.902;2023-04-30T10:03:13;102294.41;;;14.17;68.41
38466;BME280;24244;51.950;5.902;2023-04-30T10:05:42;102290.19;;;14.22;68.62
38466;BME280;24244;51.950;5.902;2023-04-30T10:08:17;102287.66;;;14.29;68.18
38466;BME280;24244;51.950;5.902;2023-04-30T10:10:46;102274.63;;;14.34;67.99
38466;BME280;24244;51.950;5.902;2023-04-30T10:13:19;102280.16;;;14.40;67.94
38466;BME280;24244;51.950;5.902;2023-04-30T10:15:48;102283.13;;;14.45;67.77
38466;BME280;24244;51.950;5.902;2023-04-30T10:18:18;102279.75;;;14.52;67.74
38466;BME280;24244;51.950;5.902;2023-04-30T10:20:49;102274.91;;;14.55;67.33
38466;BME280;24244;51.950;5.902;2023-04-30T10:23:16;102272.34;;;14.62;67.68
38466;BME280;24244;51.950;5.902;2023-04-30T10:25:44;102276.00;;;14.69;66.81
38466;BME280;24244;51.950;5.902;2023-04-30T10:28:11;102262.91;;;14.74;66.93
38466;BME280;24244;51.950;5.902;2023-04-30T10:30:40;102272.22;;;14.78;66.71
38466;BME280;24244;51.950;5.902;2023-04-30T10:33:13;102277.06;;;14.82;66.54
38466;BME280;24244;51.950;5.902;2023-04-30T10:35:46;102268.50;;;14.87;66.53
38466;BME280;24244;51.950;5.902;2023-04-30T10:38:20;102272.31;;;14.93;65.76
38466;BME280;24244;51.950;5.902;2023-04-30T10:40:49;102262.09;;;14.96;66.22
38466;BME280;24244;51.950;5.902;2023-04-30T10:43:17;102267.06;;;14.99;65.86
38466;BME280;24244;51.950;5.902;2023-04-30T10:45:50;102263.03;;;15.03;65.72
38466;BME280;24244;51.950;5.902;2023-04-30T10:48:17;102254.47;;;15.08;65.60
38466;BME280;24244;51.950;5.902;2023-04-30T10:50:52;102255.41;;;15.15;65.47
38466;BME280;24244;51.950;5.902;2023-04-30T10:53:20;102261.72;;;15.22;65.70
38466;BME280;24244;51.950;5.902;2023-04-30T10:55:52;102249.44;;;15.27;65.51
38466;BME280;24244;51.950;5.902;2023-04-30T10:58:23;102248.75;;;15.34;65.21
38466;BME280;24244;51.950;5.902;2023-04-30T11:00:59;102248.19;;;15.38;65.23
38466;BME280;24244;51.950;5.902;2023-04-30T11:03:27;102235.91;;;15.44;64.85
38466;BME280;24244;51.950;5.902;2023-04-30T11:05:54;102232.69;;;15.48;64.97
38466;BME280;24244;51.950;5.902;2023-04-30T11:08:33;102238.50;;;15.52;64.51
38466;BME280;24244;51.950;5.902;2023-04-30T11:11:00;102226.47;;;15.56;64.28
38466;BME280;24244;51.950;5.902;2023-04-30T11:13:27;102232.09;;;15.61;64.35
38466;BME280;24244;51.950;5.902;2023-04-30T11:16:01;102224.31;;;15.66;64.10
38466;BME280;24244;51.950;5.902;2023-04-30T11:18:29;102224.81;;;15.70;64.37
38466;BME280;24244;51.950;5.902;2023-04-30T11:20:57;102225.06;;;15.75;64.01
38466;BME280;24244;51.950;5.902;2023-04-30T11:23:25;102222.47;;;15.81;63.77
38466;BME280;24244;51.950;5.902;2023-04-30T11:26:06;102218.22;;;15.87;63.51
38466;BME280;24244;51.950;5.902;2023-04-30T11:28:36;102222.22;;;15.91;63.23
38466;BME280;24244;51.950;5.902;2023-04-30T11:31:05;102213.59;;;15.95;63.19
38466;BME280;24244;51.950;5.902;2023-04-30T11:33:32;102217.56;;;15.99;63.24
38466;BME280;24244;51.950;5.902;2023-04-30T11:36:01;102207.97;;;16.05;63.18
38466;BME280;24244;51.950;5.902;2023-04-30T11:38:29;102207.56;;;16.08;63.08
38466;BME280;24244;51.950;5.902;2023-04-30T11:40:57;102200.63;;;16.14;63.03
38466;BME280;24244;51.950;5.902;2023-04-30T11:43:26;102198.84;;;16.21;63.04
38466;BME280;24244;51.950;5.902;2023-04-30T11:46:06;102194.78;;;16.25;62.93
38466;BME280;24244;51.950;5.902;2023-04-30T11:48:34;102200.59;;;16.28;62.89
38466;BME280;24244;51.950;5.902;2023-04-30T11:51:02;102190.50;;;16.30;62.92
38466;BME280;24244;51.950;5.902;2023-04-30T11:53:30;102184.56;;;16.35;62.95
38466;BME280;24244;51.950;5.902;2023-04-30T11:56:02;102184.84;;;16.40;62.89
38466;BME280;24244;51.950;5.902;2023-04-30T11:58:33;102185.09;;;16.45;62.15
38466;BME280;24244;51.950;5.902;2023-04-30T12:01:00;102171.94;;;16.50;62.10
38466;BME280;24244;51.950;5.902;2023-04-30T12:03:29;102171.16;;;16.56;62.22
38466;BME280;24244;51.950;5.902;2023-04-30T12:05:56;102168.94;;;16.60;62.00
38466;BME280;24244;51.950;5.902;2023-04-30T12:08:23;102167.56;;;16.64;61.67
38466;BME280;24244;51.950;5.902;2023-04-30T12:10:50;102169.69;;;16.68;61.27
38466;BME280;24244;51.950;5.902;2023-04-30T12:13:17;102166.41;;;16.73;61.46
38466;BME280;24244;51.950;5.902;2023-04-30T12:15:56;102162.13;;;16.78;61.40
38466;BME280;24244;51.950;5.902;2023-04-30T12:18:23;102159.91;;;16.82;61.05
38466;BME280;24244;51.950;5.902;2023-04-30T12:20:52;102162.00;;;16.87;61.04
38466;BME280;24244;51.950;5.902;2023-04-30T12:23:20;102163.53;;;16.96;60.94
38466;BME280;24244;51.950;5.902;2023-04-30T12:25:47;102155.91;;;16.99;60.58
38466;BME280;24244;51.950;5.902;2023-04-30T12:28:13;102153.66;;;17.03;60.58
38466;BME280;24244;51.950;5.902;2023-04-30T12:30:41;102149.56;;;17.07;60.47
38466;BME280;24244;51.950;5.902;2023-04-30T12:33:09;102152.69;;;17.10;60.34
38466;BME280;24244;51.950;5.902;2023-04-30T12:35:41;102153.59;;;17.17;60.30
38466;BME280;24244;51.950;5.902;2023-04-30T12:38:09;102143.25;;;17.21;59.93
38466;BME280;24244;51.950;5.902;2023-04-30T12:40:36;102143.72;;;17.25;59.42
38466;BME280;24244;51.950;5.902;2023-04-30T12:43:06;102144.97;;;17.29;59.36
38466;BME280;24244;51.950;5.902;2023-04-30T12:45:47;102135.09;;;17.36;59.31
38466;BME280;24244;51.950;5.902;2023-04-30T12:48:14;102138.84;;;17.41;59.15
38466;BME280;24244;51.950;5.902;2023-04-30T12:50:45;102138.69;;;17.49;59.24
38466;BME280;24244;51.950;5.902;2023-04-30T12:53:14;102136.25;;;17.54;58.75
38466;BME280;24244;51.950;5.902;2023-04-30T12:55:41;102133.41;;;17.63;58.74
38466;BME280;24244;51.950;5.902;2023-04-30T12:58:09;102133.25;;;17.71;58.61
38466;BME280;24244;51.950;5.902;2023-04-30T13:00:47;102127.47;;;17.74;58.43
38466;BME280;24244;51.950;5.902;2023-04-30T13:03:16;102126.66;;;17.80;58.45